Time;durP1;ratioP1;P1;durP2;ratioP2;P2;SDS_P1;SDS_P2;PMS_P1;PMS_P2;Temp;Humidity;BMP_temperature;BMP_pressure;BME280_temperature;BME280_humidity;BME280_pressure;Samples;Min_cycle;Max_cycle;Signal;HPM_P1;HPM_P2
2023/03/27 00:00:35;;;;;;;1.40;1.00;;;3.60;90.50;;;;;;5123439;28;20227;-58
2023/03/27 00:03:02;;;;;;;3.33;1.17;;;3.60;90.30;;;;;;5123716;28;20290;-57
2023/03/27 00:05:30;;;;;;;3.10;1.38;;;3.50;90.10;;;;;;5124396;28;20196;-58
2023/03/27 00:08:00;;;;;;;6.22;1.48;;;3.50;90.20;;;;;;5123838;28;20231;-58
2023/03/27 00:10:28;;;;;;;4.18;1.00;;;3.40;90.20;;;;;;5120684;28;20272;-58
2023/03/27 00:12:55;;;;;;;5.28;1.40;;;3.40;90.10;;;;;;5121151;28;20311;-59
2023/03/27 00:15:23;;;;;;;2.63;1.08;;;3.30;90.10;;;;;;5120492;28;20231;-59
2023/03/27 00:17:53;;;;;;;3.97;1.15;;;3.20;90.10;;;;;;5122383;28;20207;-58
2023/03/27 00:20:22;;;;;;;5.82;1.48;;;3.20;90.20;;;;;;5124169;28;20219;-58
2023/03/27 00:22:54;;;;;;;2.25;1.08;;;3.10;90.30;;;;;;5124639;28;20203;-58
2023/03/27 00:25:22;;;;;;;2.90;1.42;;;3.10;90.30;;;;;;5120795;28;20274;-59
2023/03/27 00:27:49;;;;;;;8.18;1.35;;;3.10;90.40;;;;;;5126730;28;20200;-58
2023/03/27 00:30:15;;;;;;;4.10;1.40;;;3.00;90.50;;;;;;5130644;28;20230;-58
2023/03/27 00:32:44;;;;;;;4.00;1.40;;;3.00;90.60;;;;;;5130938;28;20287;-58
2023/03/27 00:35:11;;;;;;;2.53;1.25;;;2.90;90.60;;;;;;5129790;28;20203;-58
2023/03/27 00:37:37;;;;;;;5.32;1.55;;;2.90;90.80;;;;;;5129967;28;20199;-58
2023/03/27 00:40:06;;;;;;;2.25;2.05;;;2.80;91.00;;;;;;5119659;28;20245;-59
2023/03/27 00:42:34;;;;;;;1.80;1.25;;;2.80;91.30;;;;;;5119085;28;20199;-57
2023/03/27 00:45:01;;;;;;;3.60;1.20;;;2.70;91.50;;;;;;5118346;28;20690;-59
2023/03/27 00:47:32;;;;;;;1.80;1.25;;;2.70;91.60;;;;;;5118459;28;20199;-59
2023/03/27 00:50:03;;;;;;;4.95;1.60;;;2.60;91.80;;;;;;5117866;28;20227;-59
2023/03/27 00:52:32;;;;;;;3.95;1.60;;;2.60;92.00;;;;;;5118296;28;20184;-59
2023/03/27 00:55:04;;;;;;;8.02;1.30;;;2.60;92.30;;;;;;5118386;28;20286;-59
2023/03/27 00:57:31;;;;;;;2.20;1.02;;;2.50;92.50;;;;;;5118742;28;20681;-58
2023/03/27 01:00:04;;;;;;;4.53;1.45;;;2.40;92.80;;;;;;5117808;28;20278;-59
2023/03/27 01:02:31;;;;;;;8.50;2.90;;;2.40;93.00;;;;;;5118331;28;20218;-59
2023/03/27 01:05:00;;;;;;;3.05;1.52;;;2.30;93.30;;;;;;5117461;28;20203;-58
2023/03/27 01:07:27;;;;;;;1.70;1.33;;;2.30;93.60;;;;;;5117518;28;20207;-59
2023/03/27 01:09:55;;;;;;;6.70;1.85;;;2.30;93.70;;;;;;5117295;28;20228;-58
2023/03/27 01:12:39;;;;;;;5.38;1.52;;;2.20;93.90;;;;;;5117422;28;20204;-58
2023/03/27 01:15:26;;;;;;;4.47;1.38;;;2.20;94.10;;;;;;5117684;28;20184;-58
2023/03/27 01:18:03;;;;;;;2.70;1.30;;;2.20;94.30;;;;;;5116671;28;20200;-58
2023/03/27 01:20:58;;;;;;;6.22;1.88;;;2.10;94.50;;;;;;5117024;28;20230;-58
2023/03/27 01:23:48;;;;;;;6.07;1.23;;;2.10;94.90;;;;;;5116771;28;20633;-59
2023/03/27 01:26:52;;;;;;;4.78;1.77;;;2.10;95.30;;;;;;5117441;28;20177;-58
2023/03/27 01:29:26;;;;;;;4.60;1.25;;;2.00;95.80;;;;;;5117604;28;20572;-58
2023/03/27 01:32:18;;;;;;;2.05;1.25;;;2.00;96.10;;;;;;5117466;28;20187;-59
2023/03/27 01:35:08;;;;;;;1.60;1.10;;;2.00;96.50;;;;;;5117989;28;20551;-58
2023/03/27 01:38:00;;;;;;;4.95;1.80;;;2.00;96.90;;;;;;5116535;28;20208;-59
2023/03/27 01:40:32;;;;;;;2.58;1.40;;;1.90;97.00;;;;;;5117099;28;20227;-59
2023/03/27 01:43:04;;;;;;;8.25;2.08;;;1.90;97.30;;;;;;5116715;28;20179;-58
2023/03/27 01:45:36;;;;;;;2.55;1.40;;;1.90;97.60;;;;;;5116894;28;20271;-58
2023/03/27 01:48:10;;;;;;;4.53;1.50;;;1.80;97.70;;;;;;5117302;28;20191;-58
2023/03/27 01:50:42;;;;;;;2.47;1.40;;;1.80;97.60;;;;;;5116683;28;20288;-58
2023/03/27 01:53:13;;;;;;;4.70;1.65;;;1.80;97.90;;;;;;5116636;28;20187;-58
2023/03/27 01:55:46;;;;;;;3.15;1.70;;;1.70;98.10;;;;;;5118081;28;20534;-58
2023/03/27 01:58:16;;;;;;;5.75;1.52;;;1.70;98.10;;;;;;5116640;28;20210;-58
2023/03/27 02:00:46;;;;;;;4.82;1.80;;;1.70;98.20;;;;;;5116359;28;20231;-57
2023/03/27 02:03:17;;;;;;;2.80;1.13;;;1.70;98.40;;;;;;5115978;28;20653;-58
2023/03/27 02:05:48;;;;;;;9.80;2.00;;;1.70;98.50;;;;;;5116942;28;20188;-58
2023/03/27 02:08:20;;;;;;;5.65;2.08;;;1.70;98.60;;;;;;5118427;28;20184;-59
2023/03/27 02:10:51;;;;;;;8.30;1.50;;;1.60;98.60;;;;;;5117694;28;20219;-58
2023/03/27 02:13:22;;;;;;;4.20;1.75;;;1.60;98.70;;;;;;5117640;28;20648;-59
2023/03/27 02:15:51;;;;;;;3.10;2.15;;;1.50;98.90;;;;;;5116459;28;20184;-58
2023/03/27 02:18:24;;;;;;;2.28;1.30;;;1.50;99.30;;;;;;5116340;28;20577;-59
2023/03/27 02:20:50;;;;;;;5.68;2.65;;;1.50;99.60;;;;;;5116203;28;20226;-58
2023/03/27 02:23:17;;;;;;;6.47;1.40;;;1.40;99.70;;;;;;5115984;28;20227;-59
2023/03/27 02:25:45;;;;;;;7.97;1.65;;;1.40;99.90;;;;;;5115817;28;20676;-58
2023/03/27 02:28:28;;;;;;;6.07;1.30;;;1.40;99.90;;;;;;5115881;28;20238;-58
2023/03/27 02:31:05;;;;;;;2.83;1.48;;;1.30;99.90;;;;;;5117765;28;20583;-58
2023/03/27 02:33:43;;;;;;;5.00;0.95;;;1.30;99.90;;;;;;5116297;28;20200;-59
2023/03/27 02:36:19;;;;;;;9.13;1.95;;;1.30;99.90;;;;;;5116743;28;20584;-59
2023/03/27 02:38:52;;;;;;;6.47;1.27;;;1.30;99.90;;;;;;5115711;28;20195;-59
2023/03/27 02:41:25;;;;;;;7.28;2.35;;;1.30;99.90;;;;;;5116286;28;20219;-59
2023/03/27 02:44:01;;;;;;;3.58;2.10;;;1.30;99.90;;;;;;5115677;28;20640;-58
2023/03/27 02:46:33;;;;;;;3.50;1.13;;;1.30;99.90;;;;;;5115435;28;20180;-58
2023/03/27 02:49:06;;;;;;;4.53;1.83;;;1.30;99.90;;;;;;5115942;28;20187;-59
2023/03/27 02:51:38;;;;;;;8.95;1.98;;;1.20;99.90;;;;;;5116451;28;20224;-58
2023/03/27 02:54:08;;;;;;;4.78;1.13;;;1.20;99.90;;;;;;5114896;28;20223;-58
2023/03/27 02:56:40;;;;;;;3.80;1.58;;;1.20;99.90;;;;;;5115008;28;20223;-58
2023/03/27 02:59:12;;;;;;;7.88;1.77;;;1.20;99.90;;;;;;5115914;28;20188;-58
2023/03/27 03:01:40;;;;;;;4.10;2.35;;;1.20;99.90;;;;;;5115277;28;20232;-59
2023/03/27 03:04:12;;;;;;;4.68;1.50;;;1.20;99.90;;;;;;5114716;28;20573;-58
2023/03/27 03:06:40;;;;;;;1.35;1.05;;;1.10;99.90;;;;;;5114741;28;20180;-58
2023/03/27 03:09:08;;;;;;;3.10;1.10;;;1.10;99.90;;;;;;5114908;28;20218;-58
2023/03/27 03:11:38;;;;;;;2.75;1.00;;;1.10;99.90;;;;;;5114738;28;20253;-58
2023/03/27 03:14:05;;;;;;;2.42;1.30;;;1.10;99.90;;;;;;5114990;28;20210;-59
2023/03/27 03:16:33;;;;;;;8.38;2.10;;;1.10;99.90;;;;;;5115476;28;20219;-57
2023/03/27 03:19:00;;;;;;;4.75;1.42;;;1.10;99.90;;;;;;5114554;28;20195;-59
2023/03/27 03:21:27;;;;;;;4.75;1.77;;;1.10;99.90;;;;;;5114629;28;20281;-58
2023/03/27 03:23:54;;;;;;;4.63;1.63;;;1.10;99.90;;;;;;5114522;28;20672;-58
2023/03/27 03:26:21;;;;;;;3.75;1.30;;;1.10;99.90;;;;;;5114813;28;20199;-58
2023/03/27 03:28:48;;;;;;;3.00;1.35;;;1.10;99.90;;;;;;5114522;28;20204;-59
2023/03/27 03:31:15;;;;;;;6.70;1.83;;;1.10;99.90;;;;;;5114958;28;20246;-58
2023/03/27 03:33:43;;;;;;;4.63;1.77;;;1.10;99.90;;;;;;5114651;28;20206;-58
2023/03/27 03:36:13;;;;;;;5.00;1.27;;;1.10;99.90;;;;;;5114608;28;20206;-58
2023/03/27 03:38:40;;;;;;;5.97;1.58;;;1.10;99.90;;;;;;5114989;28;20204;-59
2023/03/27 03:41:07;;;;;;;6.40;1.92;;;1.10;99.90;;;;;;5117594;28;20328;-58
2023/03/27 03:43:34;;;;;;;5.25;1.65;;;1.10;99.90;;;;;;5114632;28;20211;-59
2023/03/27 03:46:01;;;;;;;4.57;1.50;;;1.00;99.90;;;;;;5117102;28;20227;-58
2023/03/27 03:48:28;;;;;;;8.30;1.55;;;1.10;99.90;;;;;;5120919;28;20191;-58
2023/03/27 03:50:56;;;;;;;9.38;1.80;;;1.10;99.90;;;;;;5119143;28;20227;-56
2023/03/27 03:53:23;;;;;;;2.95;1.55;;;1.20;99.90;;;;;;5117828;28;20308;-57
2023/03/27 03:55:52;;;;;;;3.28;1.33;;;1.20;99.90;;;;;;5118082;28;20211;-58
2023/03/27 03:58:19;;;;;;;4.03;1.45;;;1.20;99.90;;;;;;5118850;28;20223;-58
2023/03/27 04:00:46;;;;;;;5.78;1.33;;;1.20;99.90;;;;;;5117750;28;20232;-58
2023/03/27 04:03:13;;;;;;;3.60;1.67;;;1.20;99.90;;;;;;5116202;28;20235;-58
2023/03/27 04:05:41;;;;;;;5.88;1.73;;;1.20;99.90;;;;;;5116981;28;20199;-58
2023/03/27 04:11:26;;;;;;;7.43;1.77;;;1.10;99.90;;;;;;5111736;27;20560;-58
2023/03/27 04:13:53;;;;;;;3.90;1.70;;;1.20;99.90;;;;;;5112795;28;20200;-59
2023/03/27 04:16:20;;;;;;;6.40;1.40;;;1.20;99.90;;;;;;5112981;28;20211;-58
2023/03/27 04:18:49;;;;;;;8.60;1.60;;;1.10;99.90;;;;;;5112733;28;20290;-58
2023/03/27 04:21:16;;;;;;;6.18;1.83;;;1.10;99.90;;;;;;5112567;28;20212;-58
2023/03/27 04:23:46;;;;;;;7.05;1.90;;;1.10;99.90;;;;;;5112543;28;20203;-58
2023/03/27 04:26:14;;;;;;;1.65;1.15;;;1.10;99.90;;;;;;5111776;28;20253;-57
2023/03/27 04:28:43;;;;;;;5.75;1.65;;;1.10;99.90;;;;;;5111138;28;20210;-58
2023/03/27 04:31:10;;;;;;;9.60;2.10;;;1.20;99.90;;;;;;5111329;28;20223;-58
2023/03/27 04:33:39;;;;;;;6.35;2.00;;;1.20;99.90;;;;;;5111388;28;20204;-58
2023/03/27 04:36:07;;;;;;;5.25;1.70;;;1.20;99.90;;;;;;5111113;28;20210;-59
2023/03/27 04:38:35;;;;;;;6.32;1.98;;;1.20;99.90;;;;;;5111269;28;20200;-58
2023/03/27 04:41:02;;;;;;;4.18;1.80;;;1.30;99.90;;;;;;5111437;28;20258;-59
2023/03/27 04:43:29;;;;;;;7.25;1.45;;;1.30;99.90;;;;;;5110773;28;20212;-58
2023/03/27 04:45:57;;;;;;;10.02;2.58;;;1.30;99.90;;;;;;5110809;28;20276;-59
2023/03/27 04:48:25;;;;;;;7.07;1.98;;;1.30;99.90;;;;;;5111439;28;20199;-59
2023/03/27 04:50:52;;;;;;;8.93;1.92;;;1.30;99.90;;;;;;5110737;28;20224;-58
2023/03/27 04:53:20;;;;;;;4.57;1.30;;;1.30;99.90;;;;;;5111097;28;20214;-58
2023/03/27 04:55:49;;;;;;;7.60;2.30;;;1.20;99.90;;;;;;5111035;28;20239;-57
2023/03/27 04:58:17;;;;;;;5.43;1.40;;;1.20;99.90;;;;;;5110509;28;20571;-58
2023/03/27 05:00:49;;;;;;;3.47;1.40;;;1.20;99.90;;;;;;5101379;22;20222;-60
2023/03/27 05:03:17;;;;;;;16.35;2.25;;;1.20;99.90;;;;;;5050945;28;20193;-62
2023/03/27 05:05:48;;;;;;;10.70;2.05;;;1.10;99.90;;;;;;5050717;28;20198;-61
2023/03/27 05:08:15;;;;;;;2.33;1.33;;;1.10;99.90;;;;;;5051215;28;20224;-61
2023/03/27 05:10:42;;;;;;;4.80;1.98;;;1.10;99.90;;;;;;5051414;28;20229;-61
2023/03/27 05:13:08;;;;;;;2.15;1.77;;;1.10;99.90;;;;;;5051571;28;20210;-61
2023/03/27 05:15:35;;;;;;;1.92;1.65;;;1.10;99.90;;;;;;5050739;28;20209;-60
2023/03/27 05:18:02;;;;;;;3.88;1.83;;;1.10;99.90;;;;;;5050200;28;20292;-61
2023/03/27 05:20:30;;;;;;;2.78;1.30;;;1.00;99.90;;;;;;5049771;28;20236;-61
2023/03/27 05:22:57;;;;;;;9.52;2.25;;;1.00;99.90;;;;;;5036702;28;20206;-61
2023/03/27 05:25:24;;;;;;;6.05;1.70;;;1.00;99.90;;;;;;5037288;28;20207;-61
2023/03/27 05:27:52;;;;;;;4.70;1.85;;;1.00;99.90;;;;;;5037408;28;20217;-61
2023/03/27 05:30:22;;;;;;;8.10;1.83;;;1.00;99.90;;;;;;5036878;28;20234;-61
2023/03/27 05:32:50;;;;;;;2.35;1.73;;;1.00;99.90;;;;;;5037134;28;20695;-61
2023/03/27 05:35:18;;;;;;;4.93;1.60;;;1.10;99.90;;;;;;5037230;28;20202;-61
2023/03/27 05:37:47;;;;;;;6.10;2.20;;;1.10;99.90;;;;;;5037256;28;20206;-62
2023/03/27 05:40:15;;;;;;;4.20;1.45;;;1.10;99.90;;;;;;5036969;28;20708;-62
2023/03/27 05:42:44;;;;;;;2.38;1.50;;;1.10;99.90;;;;;;5036920;28;20204;-62
2023/03/27 05:45:12;;;;;;;5.13;2.05;;;1.10;99.90;;;;;;5037284;28;20236;-61
2023/03/27 05:47:46;;;;;;;2.70;1.77;;;1.10;99.90;;;;;;5037201;28;20210;-62
2023/03/27 05:50:14;;;;;;;2.58;1.38;;;1.10;99.90;;;;;;5036612;28;20280;-61
2023/03/27 05:52:41;;;;;;;7.65;1.50;;;1.20;99.90;;;;;;5036844;28;20213;-62
2023/03/27 05:55:11;;;;;;;10.15;1.58;;;1.20;99.90;;;;;;5037635;28;20236;-61
2023/03/27 05:57:38;;;;;;;10.57;1.60;;;1.30;99.90;;;;;;5037400;28;20246;-62
2023/03/27 06:00:10;;;;;;;5.57;2.30;;;1.40;99.90;;;;;;5036475;28;20277;-61
2023/03/27 06:02:37;;;;;;;5.45;1.98;;;1.40;99.90;;;;;;5037009;28;20256;-62
2023/03/27 06:05:06;;;;;;;4.93;1.45;;;1.50;99.90;;;;;;5037176;28;20229;-61
2023/03/27 06:07:33;;;;;;;4.93;1.70;;;1.50;99.90;;;;;;5036971;28;20654;-61
2023/03/27 06:10:00;;;;;;;7.22;1.98;;;1.50;99.90;;;;;;5036555;28;20267;-61
2023/03/27 06:12:28;;;;;;;4.55;1.80;;;1.50;99.90;;;;;;5036766;28;20210;-62
2023/03/27 06:14:55;;;;;;;5.63;2.15;;;1.60;99.90;;;;;;5036595;28;20293;-62
2023/03/27 06:17:22;;;;;;;1.88;1.35;;;1.50;99.90;;;;;;5036013;28;20207;-61
2023/03/27 06:19:49;;;;;;;3.20;1.70;;;1.50;99.90;;;;;;5036430;28;20209;-62
2023/03/27 06:22:16;;;;;;;5.70;1.70;;;1.60;99.90;;;;;;5036296;28;20253;-61
2023/03/27 06:24:42;;;;;;;5.90;1.55;;;1.60;99.90;;;;;;5036367;28;20289;-62
2023/03/27 06:27:09;;;;;;;7.63;2.83;;;1.70;99.90;;;;;;5035586;28;20206;-61
2023/03/27 06:29:37;;;;;;;3.25;2.05;;;1.70;99.90;;;;;;5035895;28;20202;-61
2023/03/27 06:32:04;;;;;;;3.75;1.55;;;1.70;99.90;;;;;;5035812;28;20222;-62
2023/03/27 06:34:31;;;;;;;7.05;2.03;;;1.80;99.90;;;;;;5035239;28;20195;-63
2023/03/27 06:37:02;;;;;;;5.68;2.15;;;1.80;99.90;;;;;;5035788;28;20199;-62
2023/03/27 06:39:29;;;;;;;3.33;2.20;;;1.90;99.90;;;;;;5036297;28;20194;-61
2023/03/27 06:41:56;;;;;;;4.25;2.10;;;1.90;99.90;;;;;;5036010;28;20318;-61
2023/03/27 06:44:23;;;;;;;5.10;1.40;;;2.00;99.90;;;;;;5035851;28;20229;-62
2023/03/27 06:46:51;;;;;;;2.35;1.38;;;2.00;99.90;;;;;;5034865;28;20206;-62
2023/03/27 06:49:18;;;;;;;3.28;1.50;;;2.00;99.90;;;;;;5035335;28;20257;-61
2023/03/27 06:51:45;;;;;;;4.22;1.80;;;2.00;99.90;;;;;;5035567;28;20696;-61
2023/03/27 06:54:13;;;;;;;3.75;2.35;;;1.90;99.90;;;;;;5035519;28;20232;-63
2023/03/27 06:56:40;;;;;;;7.25;2.13;;;1.90;99.90;;;;;;5035338;28;20584;-62
2023/03/27 06:59:07;;;;;;;2.95;1.85;;;2.00;99.90;;;;;;5035288;28;20246;-62
2023/03/27 07:01:34;;;;;;;6.93;1.40;;;2.00;99.90;;;;;;5035010;28;20230;-63
2023/03/27 07:04:03;;;;;;;5.03;1.70;;;2.10;99.90;;;;;;5035684;28;20618;-62
2023/03/27 07:06:30;;;;;;;6.07;2.25;;;2.20;99.90;;;;;;5035514;28;20205;-61
2023/03/27 07:08:56;;;;;;;12.30;2.50;;;2.20;99.90;;;;;;5035321;28;20209;-62
2023/03/27 07:11:24;;;;;;;7.25;2.35;;;2.30;99.90;;;;;;5034670;28;20618;-62
2023/03/27 07:13:51;;;;;;;9.48;2.42;;;2.40;99.90;;;;;;5034947;28;20292;-62
2023/03/27 07:16:17;;;;;;;3.70;2.25;;;2.60;99.90;;;;;;5034291;28;20198;-62
2023/03/27 07:18:44;;;;;;;6.40;2.05;;;2.70;99.90;;;;;;5034861;28;20198;-61
2023/03/27 07:21:14;;;;;;;5.95;2.45;;;2.70;99.90;;;;;;5034413;28;20642;-62
2023/03/27 07:23:41;;;;;;;8.10;1.65;;;2.70;99.90;;;;;;5035120;28;20202;-62
2023/03/27 07:26:07;;;;;;;4.25;1.95;;;2.80;99.90;;;;;;5035799;28;20210;-63
2023/03/27 07:28:37;;;;;;;3.20;2.30;;;2.90;99.90;;;;;;5035700;28;20205;-62
2023/03/27 07:31:08;;;;;;;3.58;1.42;;;3.00;99.90;;;;;;5034797;28;20222;-63
2023/03/27 07:33:35;;;;;;;3.90;2.20;;;3.20;99.90;;;;;;5034869;28;20198;-62
2023/03/27 07:36:06;;;;;;;6.22;1.70;;;3.30;99.90;;;;;;5035524;28;20216;-62
2023/03/27 07:38:34;;;;;;;5.20;2.63;;;3.50;99.90;;;;;;5035808;28;20203;-61
2023/03/27 07:41:05;;;;;;;3.42;1.63;;;3.70;99.90;;;;;;5035040;28;20305;-62
2023/03/27 07:43:33;;;;;;;5.53;1.85;;;3.90;99.90;;;;;;5035160;28;20260;-63
2023/03/27 07:46:00;;;;;;;5.45;2.30;;;4.10;99.90;;;;;;5034825;28;20627;-62
2023/03/27 07:48:27;;;;;;;2.88;1.63;;;4.10;99.90;;;;;;5034095;28;20720;-61
2023/03/27 07:50:57;;;;;;;4.07;1.98;;;4.00;99.90;;;;;;5033960;28;20222;-62
2023/03/27 07:53:24;;;;;;;5.97;1.85;;;3.90;99.90;;;;;;5034456;28;20260;-62
2023/03/27 07:55:53;;;;;;;3.72;2.00;;;3.90;99.90;;;;;;5034269;28;20210;-63
2023/03/27 07:58:21;;;;;;;4.38;2.25;;;4.00;99.90;;;;;;5034091;28;20677;-62
2023/03/27 08:00:50;;;;;;;4.65;1.70;;;4.10;99.90;;;;;;5033885;28;20778;-61
2023/03/27 08:03:17;;;;;;;12.15;2.30;;;4.10;99.90;;;;;;5033884;28;20222;-61
2023/03/27 08:05:45;;;;;;;5.18;2.00;;;4.20;99.90;;;;;;5034808;28;20203;-62
2023/03/27 08:08:12;;;;;;;17.48;2.40;;;4.30;99.90;;;;;;5034971;28;20213;-62
2023/03/27 08:10:38;;;;;;;2.50;1.65;;;4.40;99.90;;;;;;5034084;28;20222;-62
2023/03/27 08:13:07;;;;;;;6.70;1.88;;;4.60;99.90;;;;;;5033544;28;20645;-63
2023/03/27 08:15:34;;;;;;;7.57;2.10;;;4.80;99.40;;;;;;5033791;28;20205;-62
2023/03/27 08:18:00;;;;;;;3.70;2.13;;;5.00;98.40;;;;;;5033914;28;20691;-62
2023/03/27 08:20:29;;;;;;;4.03;1.63;;;5.10;97.40;;;;;;5033740;28;20222;-61
2023/03/27 08:22:55;;;;;;;2.90;2.00;;;5.20;96.70;;;;;;5033889;28;20206;-61
2023/03/27 08:25:23;;;;;;;2.70;2.08;;;5.20;95.60;;;;;;5033262;28;20680;-61
2023/03/27 08:27:50;;;;;;;5.65;1.25;;;5.30;95.50;;;;;;5033701;28;20579;-61
2023/03/27 08:30:20;;;;;;;3.03;1.40;;;5.40;94.70;;;;;;5033463;28;20233;-62
2023/03/27 08:32:47;;;;;;;10.10;2.25;;;5.50;93.40;;;;;;5034290;28;20241;-64
2023/03/27 08:35:14;;;;;;;4.45;1.73;;;5.50;93.30;;;;;;5034022;28;20213;-62
2023/03/27 08:37:41;;;;;;;5.00;2.00;;;5.50;93.50;;;;;;5033995;28;20202;-61
2023/03/27 08:40:16;;;;;;;9.45;1.60;;;5.50;93.10;;;;;;5033911;28;20283;-63
2023/03/27 08:42:45;;;;;;;2.80;1.75;;;5.50;92.90;;;;;;5033987;28;20193;-63
2023/03/27 08:45:20;;;;;;;5.20;1.48;;;5.50;92.60;;;;;;5034032;28;20202;-62
2023/03/27 08:47:53;;;;;;;6.05;2.00;;;5.50;91.90;;;;;;5033866;28;20182;-63
2023/03/27 08:50:31;;;;;;;6.43;1.70;;;5.40;91.40;;;;;;5033804;28;20329;-61
2023/03/27 08:52:59;;;;;;;3.50;1.65;;;5.30;92.00;;;;;;5033963;28;20186;-62
2023/03/27 08:55:37;;;;;;;3.88;1.80;;;5.40;92.60;;;;;;5033217;28;20638;-63
2023/03/27 08:58:04;;;;;;;4.90;2.00;;;5.60;92.10;;;;;;5036817;28;20277;-63
2023/03/27 09:00:39;;;;;;;6.38;1.52;;;5.70;91.80;;;;;;5037058;28;20312;-64
2023/03/27 09:03:13;;;;;;;4.10;2.10;;;5.60;91.40;;;;;;5037483;28;20301;-61
2023/03/27 09:05:44;;;;;;;4.38;2.20;;;5.60;91.60;;;;;;5037919;28;20186;-65
2023/03/27 09:08:24;;;;;;;4.22;1.60;;;5.70;91.60;;;;;;5037407;28;20197;-65
2023/03/27 09:10:54;;;;;;;4.65;1.60;;;5.80;90.80;;;;;;5037211;28;20225;-64
2023/03/27 09:13:27;;;;;;;4.10;1.60;;;5.90;90.30;;;;;;5040449;28;20198;-64
2023/03/27 09:15:59;;;;;;;2.70;1.55;;;5.90;90.10;;;;;;5042667;28;20209;-63
2023/03/27 09:18:30;;;;;;;5.03;2.10;;;5.90;89.30;;;;;;5039008;28;20186;-65
2023/03/27 09:21:02;;;;;;;7.70;1.63;;;5.80;88.50;;;;;;5037059;28;20214;-65
2023/03/27 09:23:34;;;;;;;4.22;1.35;;;5.70;87.60;;;;;;5039599;28;20606;-63
2023/03/27 09:26:07;;;;;;;3.05;1.85;;;5.70;89.10;;;;;;5037114;28;20189;-65
2023/03/27 09:28:40;;;;;;;6.53;1.90;;;6.00;87.40;;;;;;5035900;28;20182;-65
2023/03/27 09:31:23;;;;;;;3.53;1.73;;;6.20;85.30;;;;;;5036260;28;20571;-64
2023/03/27 09:33:50;;;;;;;1.42;1.33;;;6.30;84.00;;;;;;5037194;28;20277;-63
2023/03/27 09:36:17;;;;;;;6.53;2.10;;;6.40;82.80;;;;;;5037089;28;20230;-62
2023/03/27 09:38:49;;;;;;;2.70;1.48;;;6.50;80.70;;;;;;5037281;28;20241;-62
2023/03/27 09:41:21;;;;;;;2.97;2.05;;;6.70;79.10;;;;;;5036157;28;20228;-63
2023/03/27 09:43:55;;;;;;;3.08;1.60;;;6.80;76.70;;;;;;5037405;28;20183;-64
2023/03/27 09:46:26;;;;;;;8.35;2.20;;;6.90;75.90;;;;;;5035595;28;20197;-63
2023/03/27 09:48:58;;;;;;;5.45;2.00;;;6.90;73.90;;;;;;5036091;28;20293;-61
2023/03/27 09:51:46;;;;;;;2.92;1.75;;;6.80;74.00;;;;;;5037713;28;20258;-64
2023/03/27 09:54:15;;;;;;;6.35;1.80;;;6.80;73.90;;;;;;5037686;28;20194;-64
2023/03/27 09:56:45;;;;;;;5.13;1.77;;;6.80;72.00;;;;;;5035814;28;20774;-64
2023/03/27 09:59:23;;;;;;;2.45;1.42;;;6.70;71.90;;;;;;5035956;28;20297;-64
2023/03/27 10:01:55;;;;;;;2.60;2.25;;;6.60;71.40;;;;;;5035693;28;20226;-64
2023/03/27 10:04:23;;;;;;;2.83;1.50;;;6.50;70.90;;;;;;5035039;28;20194;-64
2023/03/27 10:06:58;;;;;;;1.33;1.10;;;6.40;71.20;;;;;;5035625;28;20205;-62
2023/03/27 10:09:28;;;;;;;8.77;1.85;;;6.20;72.30;;;;;;5034970;28;20197;-64
2023/03/27 10:12:08;;;;;;;2.78;1.52;;;6.00;74.00;;;;;;5034873;28;20597;-63
2023/03/27 10:14:38;;;;;;;3.08;2.08;;;5.90;76.20;;;;;;5035529;28;20218;-64
2023/03/27 10:17:06;;;;;;;4.95;1.73;;;5.90;78.20;;;;;;5035283;28;20224;-65
2023/03/27 10:19:37;;;;;;;6.25;2.05;;;5.80;79.40;;;;;;5035136;28;20676;-64
2023/03/27 10:22:17;;;;;;;2.33;1.50;;;5.90;80.70;;;;;;5035318;28;20651;-63
2023/03/27 10:24:47;;;;;;;3.65;1.60;;;5.90;81.10;;;;;;5035774;28;20195;-64
2023/03/27 10:27:20;;;;;;;4.85;1.60;;;5.90;82.00;;;;;;5035188;28;20241;-64
2023/03/27 10:29:46;;;;;;;6.28;2.03;;;5.90;84.80;;;;;;5034369;28;20187;-64
2023/03/27 10:32:15;;;;;;;7.90;2.45;;;5.60;90.10;;;;;;5033972;28;20236;-64
2023/03/27 10:34:53;;;;;;;3.97;1.77;;;5.30;92.00;;;;;;5034745;28;20209;-64
2023/03/27 10:37:26;;;;;;;2.28;1.50;;;5.10;94.00;;;;;;5034314;28;20645;-63
2023/03/27 10:39:55;;;;;;;5.95;1.77;;;5.00;95.20;;;;;;5034376;28;20617;-64
2023/03/27 10:42:24;;;;;;;3.90;1.88;;;5.00;96.10;;;;;;5035028;28;20205;-66
2023/03/27 10:44:55;;;;;;;3.33;2.63;;;5.20;96.80;;;;;;5034952;28;20206;-63
2023/03/27 10:47:26;;;;;;;2.45;1.20;;;5.50;97.00;;;;;;5033997;28;20186;-64
2023/03/27 10:50:02;;;;;;;2.70;1.60;;;5.90;95.60;;;;;;5034473;28;20224;-64
2023/03/27 10:52:37;;;;;;;4.97;1.58;;;6.30;94.10;;;;;;5034189;28;20213;-64
2023/03/27 10:55:15;;;;;;;2.47;1.10;;;6.70;91.70;;;;;;5034123;28;20190;-65
2023/03/27 10:57:52;;;;;;;3.92;2.03;;;7.00;88.50;;;;;;5034134;28;20183;-64
2023/03/27 11:02:57;;;;;;;1.10;0.88;;;6.60;82.20;;;;;;5063452;28;20228;-60
2023/03/27 11:05:26;;;;;;;1.95;1.17;;;5.40;91.00;;;;;;5064837;28;20243;-60
2023/03/27 11:07:57;;;;;;;1.08;0.75;;;4.40;96.40;;;;;;5067909;28;20217;-60
2023/03/27 11:10:28;;;;;;;1.38;0.90;;;3.70;99.90;;;;;;5065414;28;20190;-61
2023/03/27 11:12:58;;;;;;;3.80;1.10;;;3.20;99.90;;;;;;5065133;28;20210;-61
2023/03/27 11:15:29;;;;;;;2.88;0.98;;;3.00;99.90;;;;;;5062648;28;20202;-59
2023/03/27 11:18:01;;;;;;;1.27;1.00;;;2.90;99.90;;;;;;5057308;28;20188;-60
2023/03/27 11:20:33;;;;;;;2.50;0.93;;;2.90;99.90;;;;;;5058192;28;20280;-60
2023/03/27 11:23:05;;;;;;;6.90;1.48;;;3.00;99.90;;;;;;5059186;28;20182;-61
2023/03/27 11:25:39;;;;;;;1.75;1.17;;;3.00;99.90;;;;;;5061500;28;20192;-61
2023/03/27 11:28:17;;;;;;;1.42;1.10;;;3.30;99.90;;;;;;5060022;28;20276;-61
2023/03/27 11:30:48;;;;;;;2.35;1.10;;;3.60;99.90;;;;;;5060109;28;20231;-60
2023/03/27 11:33:35;;;;;;;5.22;1.77;;;3.80;99.90;;;;;;5066606;28;20287;-61
2023/03/27 11:36:10;;;;;;;2.03;1.20;;;3.80;99.90;;;;;;5060603;28;20277;-60
2023/03/27 11:38:41;;;;;;;1.50;1.02;;;3.90;99.90;;;;;;5059472;28;20181;-61
2023/03/27 11:41:11;;;;;;;1.77;1.20;;;4.00;99.90;;;;;;5059764;28;20227;-59
2023/03/27 11:43:39;;;;;;;1.67;1.35;;;4.00;99.90;;;;;;5058825;28;20184;-59
2023/03/27 11:46:21;;;;;;;4.40;1.25;;;4.10;99.90;;;;;;5060571;28;20288;-58
2023/03/27 11:49:09;;;;;;;2.05;1.08;;;4.20;99.90;;;;;;5060255;28;20186;-61
2023/03/27 11:51:52;;;;;;;4.55;1.42;;;4.40;99.90;;;;;;5061985;28;20221;-59
2023/03/27 11:54:37;;;;;;;1.52;0.80;;;4.80;99.90;;;;;;5060519;28;20617;-60
2023/03/27 11:57:09;;;;;;;2.35;1.17;;;5.00;99.10;;;;;;5061662;28;20190;-60
2023/03/27 11:59:50;;;;;;;1.80;1.20;;;5.00;98.20;;;;;;5061131;28;20182;-59
2023/03/27 12:02:33;;;;;;;2.50;1.33;;;5.20;98.30;;;;;;5061556;28;20312;-59
2023/03/27 12:05:06;;;;;;;1.67;0.95;;;5.40;98.10;;;;;;5062450;28;20304;-60
2023/03/27 12:07:45;;;;;;;1.00;0.93;;;5.50;96.30;;;;;;5062762;28;20189;-59
2023/03/27 12:10:27;;;;;;;1.20;0.90;;;5.60;94.80;;;;;;5063387;28;20190;-60
2023/03/27 12:13:24;;;;;;;1.20;0.98;;;5.70;92.50;;;;;;5060851;28;20532;-61
2023/03/27 12:16:01;;;;;;;2.55;1.30;;;5.70;92.10;;;;;;5035073;28;20205;-59
2023/03/27 12:18:36;;;;;;;3.65;1.08;;;5.80;91.60;;;;;;5062112;28;20190;-60
2023/03/27 12:21:17;;;;;;;1.00;0.90;;;5.80;89.90;;;;;;5061699;28;20259;-60
2023/03/27 12:24:04;;;;;;;2.53;1.10;;;5.90;88.80;;;;;;5059873;28;20188;-60
2023/03/27 12:26:46;;;;;;;1.13;1.00;;;6.00;86.10;;;;;;5057716;28;20639;-61
2023/03/27 12:29:32;;;;;;;2.40;1.20;;;6.10;84.30;;;;;;5059075;28;20628;-60
2023/03/27 12:32:16;;;;;;;2.53;1.30;;;6.30;83.00;;;;;;5060588;28;20221;-59
2023/03/27 12:34:53;;;;;;;2.08;0.90;;;6.60;77.20;;;;;;5061184;28;20209;-60
2023/03/27 12:37:25;;;;;;;1.30;1.10;;;6.80;71.50;;;;;;5061225;28;20186;-61
2023/03/27 12:39:53;;;;;;;2.97;0.90;;;7.00;67.30;;;;;;5060395;28;20556;-60
2023/03/27 12:42:42;;;;;;;2.78;1.00;;;7.00;66.90;;;;;;5060185;28;20608;-61
2023/03/27 12:45:18;;;;;;;2.08;1.25;;;7.00;68.80;;;;;;5060250;28;20186;-61
2023/03/27 12:48:03;;;;;;;1.25;1.00;;;7.00;69.90;;;;;;5060826;28;20681;-60
2023/03/27 12:50:35;;;;;;;2.30;1.17;;;7.00;71.10;;;;;;5061018;28;20190;-61
2023/03/27 12:53:05;;;;;;;1.80;1.40;;;6.80;71.60;;;;;;5060981;28;20706;-61
2023/03/27 12:55:34;;;;;;;2.38;0.90;;;6.60;72.20;;;;;;5061047;28;20205;-60
2023/03/27 12:58:04;;;;;;;2.28;0.88;;;6.30;73.50;;;;;;5060620;28;20205;-60
2023/03/27 13:00:32;;;;;;;1.77;0.80;;;6.10;76.80;;;;;;5060447;28;20698;-61
2023/03/27 13:03:26;;;;;;;2.25;1.20;;;6.00;80.50;;;;;;5062981;28;20277;-60
2023/03/27 13:06:13;;;;;;;2.15;1.00;;;5.80;84.20;;;;;;5063102;28;20254;-62
2023/03/27 13:09:15;;;;;;;1.35;1.10;;;5.80;88.30;;;;;;5061944;28;20189;-60
2023/03/27 13:11:56;;;;;;;1.83;0.95;;;5.80;90.60;;;;;;5060341;28;20225;-60
2023/03/27 13:14:47;;;;;;;1.52;0.90;;;5.90;90.80;;;;;;5060461;28;20189;-59
2023/03/27 13:17:29;;;;;;;1.20;1.10;;;5.90;90.80;;;;;;5060071;28;20252;-59
2023/03/27 13:20:08;;;;;;;0.80;0.80;;;5.90;90.20;;;;;;5059595;28;20213;-60
2023/03/27 13:22:48;;;;;;;0.85;0.80;;;5.90;88.50;;;;;;5059666;28;20695;-60
2023/03/27 13:25:30;;;;;;;2.35;1.00;;;5.90;85.50;;;;;;5060044;28;20196;-61